Latest Coastal Weather Observations for Taree Airport

IDN60701

Issued at 4:45 pm EST Wednesday 20 August 2014 (issued every 10 minutes, with the page automatically refreshed every 10 minutes)

About coastal observations | Map of coastal stations | Coastal observations for NSW | Marine services | Other Formats
Station Details ID: 060141 Name: TAREE AIRPORT AWS Lat: -31.89 Lon: 152.51 Height: 8.0 m
Data from the previous 72 hours. | See also: Recent months at Taree Airport
Date/Time
EST
Temp

°C
Wind Pressure Rain
since 9am
mm
Weather Cloud Vis
km
Sea
Height
m
Swell
Dir
 
Speed
knots
Gust
knots
hPa Trend Height
m
Period
s
Dir
20/04:30pm 15.8 S 13 17 1022.6 - 0.0 - Partly cloudy - - - - -
20/04:00pm 16.4 S 13 20 1022.2 - 0.0 - Partly cloudy - - - - -
20/03:30pm 17.1 S 10 15 1021.9 - 0.0 - Partly cloudy - - - - -
20/03:00pm 16.9 SSW 10 15 1021.9 - 0.0 - Cloudy - - - - -
20/02:30pm 17.2 SSW 14 20 1021.8 - 0.0 - Partly cloudy - - - - -
20/02:00pm 17.9 SSW 12 17 1021.8 - 0.0 - Partly cloudy - - - - -
20/01:30pm 16.6 SSW 15 20 1021.9 - 0.0 - Partly cloudy - - - - -
20/01:00pm 16.4 SSW 15 21 1021.8 - 0.0 - Partly cloudy - - - - -
20/12:30pm 18.3 SW 14 19 1021.9 - 0.0 - Partly cloudy - - - - -
20/12:00pm 16.7 SSW 13 21 1022.2 - 0.0 - Partly cloudy - - - - -
20/11:30am 17.4 SW 13 18 1022.3 - 0.0 - Partly cloudy - - - - -
20/11:00am 16.9 SW 10 17 1022.6 - 0.0 - Partly cloudy - - - - -
20/10:30am 16.6 WSW 9 14 1022.6 - 0.0 - Partly cloudy - - - - -
20/10:00am 15.9 WSW 11 16 1022.6 - 0.0 - Partly cloudy - - - - -
20/09:30am 14.9 WSW 13 19 1022.4 - 0.0 - - - - - - -
20/09:00am 14.5 WSW 12 19 1022.3 - 2.2 - Mostly clear - - - - -
20/08:30am 13.9 WSW 9 15 1022.3 - 2.2 - Partly cloudy - - - - -
20/08:00am 12.4 W 8 11 1022.2 - 2.2 - Partly cloudy - - - - -
20/07:30am 12.3 W 9 13 1021.7 - 2.2 - Partly cloudy - - - - -
20/07:00am 11.9 W 8 12 1021.4 - 2.2 - Partly cloudy - - - - -
20/06:30am 11.6 WSW 9 13 1021.2 - 2.2 - Partly cloudy - - - - -
20/06:00am 11.3 W 9 14 1020.7 - 2.2 - Cloudy - - - - -
20/05:30am 11.4 WSW 10 16 1020.4 - 2.2 - Partly cloudy - - - - -
20/05:00am 11.3 W 8 12 1019.9 - 2.2 - Partly cloudy - - - - -
20/04:30am 11.7 WSW 9 15 1019.6 - 2.2 - Partly cloudy - - - - -
20/04:00am 11.9 W 9 14 1019.2 - 2.2 - Partly cloudy - - - - -
20/03:30am 11.7 W 8 11 1019.0 - 2.2 - Partly cloudy - - - - -
20/03:00am 11.7 W 7 9 1018.9 - 2.2 Rain Cloudy - - - - -
20/02:30am 11.8 W 7 10 1018.9 - 2.0 - Partly cloudy - - - - -
20/02:00am 12.2 W 8 13 1018.9 - 2.0 - Partly cloudy - - - - -
20/01:30am 12.4 W 9 14 1018.9 - 2.0 - Partly cloudy - - - - -
20/01:00am 12.6 WSW 9 13 1018.8 - 2.0 - Partly cloudy - - - - -
20/12:30am 12.7 WSW 10 15 1018.7 - 2.0 - Partly cloudy - - - - -
20/12:00am 13.1 WSW 12 18 1018.6 - 2.0 - Cloudy - - - - -
 
Date/Time
EST
Temp

°C
Wind Pressure Rain
since 9am
mm
Weather Cloud Vis
km
Sea
Height
m
Swell
Dir
 
Speed
knots
Gust
knots
hPa Trend Height
m
Period
s
Dir
19/11:30pm 13.4 WSW 11 16 1018.7 - 2.0 - Partly cloudy - - - - -
19/11:00pm 13.4 WSW 11 16 1018.4 - 2.0 - Partly cloudy - - - - -
19/10:30pm 13.5 WSW 11 18 1018.3 - 2.0 - Partly cloudy - - - - -
19/10:00pm 13.6 WSW 11 16 1017.9 - 2.0 - Partly cloudy - - - - -
19/09:30pm 13.8 WSW 11 17 1018.0 - 2.0 - Partly cloudy - - - - -
19/09:00pm 14.0 WSW 10 17 1017.8 - 2.0 - Cloudy - - - - -
19/08:30pm 13.9 WSW 12 17 1017.6 - 2.0 - Partly cloudy - - - - -
19/08:00pm 13.8 WSW 9 15 1017.1 - 2.0 - Partly cloudy - - - - -
19/07:30pm 14.0 WSW 11 16 1016.9 - 2.0 - Partly cloudy - - - - -
19/07:00pm 14.1 WSW 11 15 1016.7 - 2.0 - Partly cloudy - - - - -
19/06:30pm 14.0 WSW 11 17 1016.0 - 2.0 - Partly cloudy - - - - -
19/06:00pm 14.1 WSW 12 18 1015.5 - 2.0 Recent precip. Cloudy - - - - -
19/05:30pm 13.8 WSW 13 19 1015.1 - 2.0 - Partly cloudy - - - - -
19/05:00pm 14.9 WSW 12 19 1014.8 - 1.6 - Partly cloudy - - - - -
19/04:30pm 14.7 SW 14 20 1014.2 - 1.6 - Partly cloudy - - - - -
19/04:00pm 15.0 SW 13 20 1013.7 - 1.6 - Partly cloudy - - - - -
19/03:30pm 14.9 WSW 13 19 1013.2 - 1.6 - Partly cloudy - - - - -
19/03:06pm 15.2 SSW 17 27 1013.1 - 1.6 - Partly cloudy - - - - -
19/03:00pm 15.4 SW 19 27 1013.1 - 1.4 - Cloudy - - - - -
19/02:32pm 17.3 SSW 16 27 1012.3 - 1.4 - Partly cloudy - - - - -
19/02:30pm 17.3 SSW 16 23 1012.4 - 1.4 - Partly cloudy - - - - -
19/02:12pm 16.3 SW 16 26 1012.3 - 1.4 - Partly cloudy - - - - -
19/02:00pm 16.9 SW 16 23 1012.0 - 1.4 - Partly cloudy - - - - -
19/01:30pm 15.6 SSW 15 19 1011.8 - 1.4 - Partly cloudy - - - - -
19/01:24pm 16.0 SSW 16 26 1011.8 - 1.4 - Partly cloudy - - - - -
19/01:00pm 17.1 SSW 11 19 1011.6 - 1.2 - Partly cloudy - - - - -
19/12:30pm 17.7 SW 17 24 1011.7 - 1.2 - Partly cloudy - - - - -
19/12:00pm 16.8 WSW 13 21 1011.9 - 1.2 - Cloudy - - - - -
19/11:30am 16.2 WSW 11 17 1012.3 - 1.2 - Partly cloudy - - - - -
19/11:00am 15.0 WSW 10 15 1012.5 - 1.2 - Partly cloudy - - - - -
19/10:30am 14.0 W 9 13 1012.5 - 1.2 - Partly cloudy - - - - -
19/10:00am 13.5 W 10 15 1012.5 - 0.8 - Partly cloudy - - - - -
19/09:30am 12.6 W 8 11 1012.5 - 0.6 - Partly cloudy - - - - -
19/09:00am 12.2 W 11 15 1012.3 - 6.6 Rain Cloudy - - - - -
19/08:30am 12.5 W 9 13 1012.0 - 3.6 - Partly cloudy - - - - -
19/08:00am 12.6 W 11 15 1011.5 - 2.6 - Partly cloudy - - - - -
19/07:30am 13.3 W 12 18 1011.0 - 0.6 - Partly cloudy - - - - -
19/07:00am 13.6 W 12 18 1010.5 - 0.4 - Cloudy - - - - -
19/06:30am 14.3 WSW 12 17 1010.0 - 0.4 - Partly cloudy - - - - -
19/06:00am 14.4 W 11 17 1009.4 - 0.4 - Partly cloudy - - - - -
19/05:30am 14.1 W 10 15 1009.1 - 0.4 - Partly cloudy - - - - -
19/05:00am 14.2 W 11 21 1009.0 - 0.4 - Partly cloudy - - - - -
19/04:30am 14.2 WSW 12 19 1008.7 - 0.4 - Partly cloudy - - - - -
19/04:00am 14.4 W 11 18 1008.5 - 0.4 - Partly cloudy - - - - -
19/03:30am 14.1 W 9 13 1008.6 - 0.4 - Partly cloudy - - - - -
19/03:00am 14.5 W 10 15 1008.4 - 0.4 - Cloudy - - - - -
19/02:30am 14.7 W 12 16 1008.2 - 0.4 - Partly cloudy - - - - -
19/02:00am 14.7 W 11 16 1008.0 - 0.4 - Partly cloudy - - - - -
19/01:30am 14.2 W 12 18 1008.1 - 0.4 - Partly cloudy - - - - -
19/01:00am 14.4 W 13 20 1007.8 - 0.4 - Partly cloudy - - - - -
19/12:30am 14.8 WSW 14 23 1007.5 - 0.4 - Partly cloudy - - - - -
19/12:00am 15.2 WSW 15 26 1007.0 - 0.4 - Cloudy - - - - -
 
Date/Time
EST
Temp

°C
Wind Pressure Rain
since 9am
mm
Weather Cloud Vis
km
Sea
Height
m
Swell
Dir
 
Speed
knots
Gust
knots
hPa Trend Height
m
Period
s
Dir
18/11:30pm 15.9 WSW 18 30 1006.5 - 0.4 - Partly cloudy - - - - -
18/11:07pm 16.4 W 17 27 1005.9 - 0.4 - Partly cloudy - - - - -
18/11:00pm 16.3 W 15 24 1005.8 - 0.4 - Partly cloudy - - - - -
18/10:30pm 16.4 W 16 26 1005.7 - 0.4 - Partly cloudy - - - - -
18/10:17pm 16.4 W 15 28 1005.5 - 0.4 - Partly cloudy - - - - -
18/10:00pm 16.3 W 14 20 1005.5 - 0.4 - Partly cloudy - - - - -
18/09:30pm 16.2 W 13 21 1005.8 - 0.4 - Cloudy - - - - -
18/09:00pm 15.8 W 8 11 1005.8 - 0.4 - Cloudy - - - - -
18/08:30pm 15.5 W 11 17 1005.9 - 0.4 - Cloudy - - - - -
18/08:00pm 15.3 W 10 15 1006.1 - 0.4 - Cloudy - - - - -
18/07:30pm 14.8 W 13 19 1005.9 - 0.4 - Partly cloudy - - - - -
18/07:00pm 14.7 W 13 19 1005.6 - 0.4 - Cloudy - - - - -
18/06:30pm 14.8 W 14 23 1005.5 - 0.4 - Cloudy - - - - -
18/06:00pm 14.9 W 12 20 1005.1 - 0.4 Recent precip. Cloudy - - - - -
18/05:30pm 14.1 WNW 8 12 1004.7 - 0.4 - Partly cloudy - - - - -
18/05:00pm 14.3 WSW 7 10 1004.5 - 0.2 - Partly cloudy - - - - -
18/04:30pm 15.7 WSW 9 13 1004.0 - 0.0 - Partly cloudy - - - - -
18/04:00pm 15.8 WNW 14 17 1003.4 - 0.0 - Partly cloudy - - - - -
18/03:30pm 17.2 W 15 19 1003.0 - 0.0 - Partly cloudy - - - - -
18/03:00pm 17.6 W 14 18 1002.7 - 0.0 - Mostly cloudy - - - - -
18/02:30pm 18.4 W 11 17 1002.2 - 0.0 - Partly cloudy - - - - -
18/02:00pm 19.3 W 12 18 1002.1 - 0.0 - Partly cloudy - - - - -
18/01:30pm 18.2 WNW 11 16 1001.9 - 0.0 - Partly cloudy - - - - -
18/01:00pm 19.1 W 12 19 1002.1 - 0.0 - Partly cloudy - - - - -
18/12:30pm 17.5 W 12 17 1002.2 - 0.0 - Cloudy - - - - -
18/12:00pm 17.6 W 11 14 1002.6 - 0.0 - Mostly cloudy - - - - -
18/11:30am 17.2 W 12 20 1002.9 - 0.0 - Cloudy - - - - -
18/11:00am 18.3 WNW 14 23 1003.0 - 0.0 - Partly cloudy - - - - -
18/10:30am 17.1 WNW 13 19 1003.3 - 0.0 - Partly cloudy - - - - -
18/10:00am 17.1 W 14 21 1003.4 - 0.0 - - - - - - -
18/09:30am 16.9 W 11 18 1003.6 - 0.0 - - - - - - -
18/09:00am 15.5 W 7 10 1003.8 - 0.2 - Mostly clear - - - - -
18/08:30am 14.5 W 5 7 1003.9 - 0.2 - Partly cloudy - - - - -
18/08:00am 11.2 SW 3 5 1004.1 - 0.2 - Partly cloudy - - - - -
18/07:30am 10.5 WSW 1 3 1004.0 - 0.2 - Partly cloudy - - - - -
18/07:00am 7.9 CALM 0 0 1004.0 - 0.2 - Partly cloudy - - - - -
18/06:30am 8.2 W 3 4 1003.7 - 0.2 - Partly cloudy - - - - -
18/06:00am 8.1 NW 4 5 1003.5 - 0.2 - Mostly cloudy - - - - -
18/05:30am 7.6 W 2 5 1003.3 - 0.2 - Partly cloudy - - - - -
18/05:00am 8.0 NW 4 6 1003.2 - 0.2 - Partly cloudy - - - - -
18/04:30am 7.0 NW 5 7 1003.2 - 0.2 - - - - - - -
18/04:00am 7.9 CALM 0 0 1003.5 - 0.2 - Partly cloudy - - - - -
18/03:30am 8.5 NNW 4 5 1003.7 - 0.2 - Partly cloudy - - - - -
18/03:00am 7.9 N 4 5 1004.0 - 0.2 - Mostly cloudy - - - - -
18/02:30am 7.7 NNW 2 4 1004.4 - 0.2 - Partly cloudy - - - - -
18/02:00am 7.6 SSW 5 7 1004.8 - 0.2 - Cloudy - - - - -
18/01:30am 5.4 N 5 5 1004.8 - 0.2 - Partly cloudy - - - - -
18/01:00am 5.9 CALM 0 0 1005.1 - 0.2 - - - - - - -
18/12:30am 6.0 N 4 5 1005.2 - 0.2 - - - - - - -
18/12:00am 6.3 NE 4 5 1005.5 - 0.2 - - - - - - -
 
Date/Time
EST
Temp

°C
Wind Pressure Rain
since 9am
mm
Weather Cloud Vis
km
Sea
Height
m
Swell
Dir
 
Speed
knots
Gust
knots
hPa Trend Height
m
Period
s
Dir
17/11:53pm 6.0 NE 6 7 1005.5 - 0.2 - - - - - - -
17/11:30pm 11.0 W 6 7 1005.3 - 0.2 - - - - - - -
17/11:00pm 8.1 CALM 0 0 1005.6 - 0.2 - - - - - - -
17/10:30pm 10.0 CALM 0 0 1005.6 - 0.2 - - - - - - -
17/10:00pm 11.3 W 4 4 1005.7 - 0.2 - - - - - - -
17/09:30pm 11.4 W 5 5 1005.7 - 0.2 - - - - - - -
17/09:00pm 11.8 NW 5 5 1006.1 - 0.2 - - - - - - -
17/08:30pm 14.2 NW 6 7 1006.0 - 0.2 - - - - - - -
17/08:00pm 14.6 NW 6 7 1006.1 - 0.2 - - - - - - -
17/07:30pm 15.4 NW 8 10 1006.1 - 0.2 - - - - - - -
17/07:00pm 15.5 NW 7 9 1005.9 - 0.2 - - - - - - -
17/06:30pm 16.0 WNW 7 11 1005.7 - 0.2 - - - - - - -
17/06:00pm 16.8 WNW 10 15 1005.4 - 0.2 - - - - - - -
17/05:30pm 17.4 WNW 9 14 1005.2 - 0.2 - - - - - - -
17/05:00pm 18.5 WNW 10 16 1004.7 - 0.2 - - - - - - -

Other Formats:

Comma delimited format used in spreadsheet applications
http://www.bom.gov.au/fwo/IDN60701/IDN60701.95784.axf

JavaScript Object Notation format (JSON) in row-major order
http://www.bom.gov.au/fwo/IDN60701/IDN60701.95784.json